Flight Track Log - Related Links

Times and Time Zones

All times are in EST time to prevent confusion due to time zone crossing. See the RPA3228 flight status page for this flight to view local times or setup timezone preferences in your user account.

Time Position Orientation Groundspeed Altitude Reporting Facility
EST Latitude Longitude Course Direction KTS km/h feet Rate Location/Type
Mon 07:17:04 36.1333 -86.7000 50° Northeast 156 290 1.300  Level Nashville TRACON
Mon 07:17:52 36.1500 -86.7333 302° West 189 349 2.400 1.833 Climbing Nashville TRACON
Mon 07:18:52 36.1833 -86.8000 302° West 262 486 4.600 2.600 Climbing Nashville TRACON
Mon 07:19:00 36.2387 -86.3351 80° East  Level Estimated
Mon 07:19:52 36.2167 -86.7333 58° Northeast 291 539 7.600  Level Nashville TRACON
Mon 07:20:00 36.2766 -86.2205 64° Northeast  Level Estimated
Mon 07:21:00 36.3143 -86.1058 68° East  Level Estimated
Mon 07:21:04 36.2083 -86.6278 96° East 290 538 10.600  Level Memphis Center
Mon 07:22:00 36.3520 -85.9910 50° Northeast  Level Estimated
Mon 07:22:04 36.2069 -86.5150 91° East 319 591 12.400  Level Memphis Center
Mon 07:23:05 36.2053 -86.3950 91° East 342 634 14.600 1.983 Climbing Memphis Center
Mon 07:24:05 36.2028 -86.2689 91° East 359 665 16.400 1.785 Climbing Memphis Center
Mon 07:25:06 36.2017 -86.1344 91° East 382 708 18.200 2.115 Climbing Memphis Center
Mon 07:26:07 36.2311 -86.0044 74° East 399 739 20.700 2.380 Climbing Memphis Center
Mon 07:27:07 36.2850 -85.8825 61° Northeast 401 742 23.000 2.182 Climbing Memphis Center
Mon 07:28:08 36.3450 -85.7497 61° Northeast 405 750 25.100 1.770 Climbing Memphis Center
Mon 07:29:09 36.4056 -85.6242 59° Northeast 415 769 26.600 1.438 Climbing Memphis Center
Mon 07:30:09 36.4683 -85.4944 59° Northeast 428 793 28.000 1.339 Climbing Memphis Center
Mon 07:31:10 36.5300 -85.3600 60° Northeast 440 814 29.300 1.180 Climbing Memphis Center
Mon 07:32:11 36.5956 -85.2214 59° Northeast 454 840 30.400 992 Climbing Memphis Center
Mon 07:33:11 36.6486 -85.0692 66° East 471 872 31.300 1.140 Climbing Memphis Center
Mon 07:34:12 36.6961 -84.9119 69° East 480 888 32.700 1.087 Climbing Memphis Center
Mon 07:35:29 36.7522 -84.7264 69° East 479 887 33.800 957 Climbing Indianapolis Center
Mon 07:36:30 36.8000 -84.5714 69° East 478 885 34.900 585 Climbing Indianapolis Center
Mon 07:37:32 36.8547 -84.3931 69° East 477 884 35.000 49 Climbing Indianapolis Center
Mon 07:38:33 36.8989 -84.2433 70° East 466 863 35.000  Level Indianapolis Center
Mon 07:39:35 36.9444 -84.0939 69° East 462 856 35.000  Level Indianapolis Center
Mon 07:40:36 36.9892 -83.9428 70° East 462 856 35.000  Level Indianapolis Center
Mon 07:41:38 37.0336 -83.7917 70° East 461 855 35.000  Level Indianapolis Center
Mon 07:42:39 37.0772 -83.6411 70° East 459 850 35.000  Level Indianapolis Center
Mon 07:43:41 37.1292 -83.4647 70° East 459 850 35.000  Level Indianapolis Center
Mon 07:44:42 37.1717 -83.3144 70° East 455 843 35.000  Level Indianapolis Center
Mon 07:45:44 37.2167 -83.1639 69° East 457 847 35.000  Level Indianapolis Center
Mon 07:46:45 37.2600 -83.0114 70° East 457 847 35.000  Level Indianapolis Center
Mon 07:47:47 37.3039 -82.8592 70° East 458 848 35.000  Level Indianapolis Center
Mon 07:48:48 37.3461 -82.7072 71° East 458 848 35.000  Level Indianapolis Center
Mon 07:49:50 37.3903 -82.5547 70° East 459 850 35.000  Level Indianapolis Center
Mon 07:50:52 37.4333 -82.4008 71° East 463 858 35.000  Level Indianapolis Center
Mon 07:51:53 37.4764 -82.2469 71° East 464 859 35.000  Level Indianapolis Center
Mon 07:52:55 37.5189 -82.0933 71° East 464 859 35.000  Level Indianapolis Center
Mon 07:53:57 37.5694 -81.9128 70° East 466 863 35.000  Level Indianapolis Center
Mon 07:54:58 37.6108 -81.7581 71° East 467 864 35.000  Level Indianapolis Center
Mon 07:56:00 37.6525 -81.6025 71° East 466 863 35.000  Level Indianapolis Center
Mon 07:57:02 37.6972 -81.4417 71° East 466 863 35.000  Level Indianapolis Center
Mon 07:58:03 37.7381 -81.2881 71° East 470 871 35.000  Level Indianapolis Center
Mon 07:59:05 37.7786 -81.1361 71° East 470 871 35.000  Level Indianapolis Center
Mon 08:00:07 37.8333 -80.9758 67° East 469 869 35.000  Level Indianapolis Center
Mon 08:01:09 37.8869 -80.8247 66° East 470 871 35.000  Level Indianapolis Center
Mon 08:02:10 37.9397 -80.6733 66° East 471 872 35.000  Level Indianapolis Center
Mon 08:03:12 37.9928 -80.5228 66° East 469 869 35.000  Level Indianapolis Center
Mon 08:04:14 38.0483 -80.3678 65° Northeast 471 872 35.000  Level Indianapolis Center
Mon 08:05:16 38.1119 -80.1972 65° Northeast 466 863 35.000  Level Washington Center
Mon 08:06:15 38.1656 -80.0472 66° East 466 863 35.000 -706 Level Washington Center
Mon 08:07:15 38.2192 -79.8972 65° Northeast 466 863 33.600 -1.388 Descending Washington Center
Mon 08:08:16 38.2703 -79.7467 67° East 466 863 32.200 -1.424 Descending Washington Center
Mon 08:09:13 38.3233 -79.5961 66° East 466 863 30.800 -1.424 Descending Washington Center
Mon 08:10:14 38.3672 -79.4633 67° East 466 863 29.400 -1.388 Descending Washington Center
Mon 08:11:14 38.4203 -79.3097 66° East 466 863 28.000 -694 Descending Washington Center
Mon 08:12:15 38.4522 -79.1469 76° East 466 863 28.000 -49 Level Washington Center
Mon 08:13:16 38.4819 -78.9839 77° East 466 863 27.900 -942 Descending Washington Center
Mon 08:14:16 38.5119 -78.8022 78° East 471 872 26.100 -2.390 Descending Washington Center
Mon 08:15:14 38.5281 -78.6622 82° East 461 855 23.200 -2.100 Descending Washington Center
Mon 08:16:16 38.5528 -78.5067 78° East 454 840 21.900 -1.230 Descending Washington Center
Mon 08:17:16 38.5772 -78.3589 78° East 438 811 20.700 -1.627 Descending Washington Center
Mon 08:18:14 38.6097 -78.2114 74° East 432 800 18.700 -1.916 Descending Washington Center
Mon 08:19:15 38.6500 -78.0825 68° East 410 760 16.900 -1.820 Descending Washington Center
Mon 08:20:16 38.6922 -77.9536 67° East 394 729 15.000 -1.815 Descending Washington Center
Mon 08:21:14 38.7300 -77.8350 68° East 374 692 13.300 -1.613 Descending Washington Center
Mon 08:22:15 38.7878 -77.7436 51° Northeast 343 636 11.800 -1.377 Descending Washington Center
Mon 08:23:16 38.8456 -77.6653 47° Northeast 312 578 10.500 -1.440 Descending Washington Center
Mon 08:23:55 38.8833 -77.6000 53° Northeast 258 478 9.400 -1.295 Descending Potomac TRACON
Mon 08:24:44 38.9167 -77.5667 38° Northeast 231 428 8.600 -991 Descending Potomac TRACON
Mon 08:25:44 38.9333 -77.4833 76° East 234 433 7.600 -1.105 Descending Potomac TRACON
Mon 08:26:38 38.9000 -77.4333 131° Southeast 221 409 6.500 -895 Descending Potomac TRACON
Mon 08:27:38 38.9167 -77.3833 67° East 218 404 5.900 -835 Descending Potomac TRACON
Mon 08:28:33 38.9500 -77.3667 21° North 185 343 4.900 -522 Descending Potomac TRACON
Mon 08:29:33 38.9833 -77.3167 49° Northeast 203 377 4.900 -421 Level Potomac TRACON
Mon 08:30:27 38.9833 -77.2500 90° East 202 373 4.100 -1.000 Descending Potomac TRACON
Mon 08:31:27 38.9667 -77.1833 108° East 192 356 3.000 -950 Descending Potomac TRACON
Mon 08:32:27 38.9333 -77.1333 131° Southeast 189 349 2.200 -893 Descending Potomac TRACON
Mon 08:33:28 38.9000 -77.0833 131° Southeast 164 304 1.200 -783 Descending Potomac TRACON
Mon 08:34:22 38.8833 -77.0500 123° Southeast 131 243 700 -556 Descending Potomac TRACON

Login

Don't have an account? Register now (free) for customized features, flight alerts, and more!